sensor_id;sensor_type;location;lat;lon;timestamp;temperature;humidity
15959;DHT22;8078;47.822;9.402;2023-04-01T00:00:53;4.80;99.90
15959;DHT22;8078;47.822;9.402;2023-04-01T00:03:20;4.80;99.90
15959;DHT22;8078;47.822;9.402;2023-04-01T00:05:46;4.70;99.90
15959;DHT22;8078;47.822;9.402;2023-04-01T00:08:12;4.70;99.90
15959;DHT22;8078;47.822;9.402;2023-04-01T00:10:37;4.70;99.90
15959;DHT22;8078;47.822;9.402;2023-04-01T00:13:03;4.70;99.90
15959;DHT22;8078;47.822;9.402;2023-04-01T00:15:29;4.70;99.90
15959;DHT22;8078;47.822;9.402;2023-04-01T00:17:55;4.70;99.90
15959;DHT22;8078;47.822;9.402;2023-04-01T00:20:21;4.70;99.90
15959;DHT22;8078;47.822;9.402;2023-04-01T00:22:46;4.60;99.90
15959;DHT22;8078;47.822;9.402;2023-04-01T00:25:12;4.60;99.90
15959;DHT22;8078;47.822;9.402;2023-04-01T00:27:38;4.60;99.90
15959;DHT22;8078;47.822;9.402;2023-04-01T00:30:04;4.60;99.90
15959;DHT22;8078;47.822;9.402;2023-04-01T00:32:29;4.60;99.90
15959;DHT22;8078;47.822;9.402;2023-04-01T00:34:56;4.60;99.90
15959;DHT22;8078;47.822;9.402;2023-04-01T00:37:24;4.50;99.90
15959;DHT22;8078;47.822;9.402;2023-04-01T00:39:49;4.50;99.90
15959;DHT22;8078;47.822;9.402;2023-04-01T00:42:15;4.50;99.90
15959;DHT22;8078;47.822;9.402;2023-04-01T00:44:41;4.50;99.90
15959;DHT22;8078;47.822;9.402;2023-04-01T00:47:07;4.50;99.90
15959;DHT22;8078;47.822;9.402;2023-04-01T00:49:37;4.50;99.90
15959;DHT22;8078;47.822;9.402;2023-04-01T00:52:06;4.40;99.90
15959;DHT22;8078;47.822;9.402;2023-04-01T00:54:32;4.40;99.90
15959;DHT22;8078;47.822;9.402;2023-04-01T00:57:05;4.40;99.90
15959;DHT22;8078;47.822;9.402;2023-04-01T00:59:35;4.40;99.90
15959;DHT22;8078;47.822;9.402;2023-04-01T01:02:03;4.30;99.90
15959;DHT22;8078;47.822;9.402;2023-04-01T01:04:31;4.20;99.90
15959;DHT22;8078;47.822;9.402;2023-04-01T01:07:03;4.10;99.90
15959;DHT22;8078;47.822;9.402;2023-04-01T01:12:26;4.20;99.90
15959;DHT22;8078;47.822;9.402;2023-04-01T01:15:03;4.20;99.90
15959;DHT22;8078;47.822;9.402;2023-04-01T01:23:34;4.20;99.90
15959;DHT22;8078;47.822;9.402;2023-04-01T01:26:28;4.20;99.90
15959;DHT22;8078;47.822;9.402;2023-04-01T01:29:26;4.20;99.90
15959;DHT22;8078;47.822;9.402;2023-04-01T01:34:46;4.00;99.90
15959;DHT22;8078;47.822;9.402;2023-04-01T01:37:15;4.00;99.90
15959;DHT22;8078;47.822;9.402;2023-04-01T01:39:43;4.00;99.90
15959;DHT22;8078;47.822;9.402;2023-04-01T01:42:14;4.00;99.90
15959;DHT22;8078;47.822;9.402;2023-04-01T01:44:43;3.90;99.90
15959;DHT22;8078;47.822;9.402;2023-04-01T01:47:10;3.90;99.90
15959;DHT22;8078;47.822;9.402;2023-04-01T01:49:36;3.90;99.90
15959;DHT22;8078;47.822;9.402;2023-04-01T01:52:04;3.90;99.90
15959;DHT22;8078;47.822;9.402;2023-04-01T01:54:29;4.00;99.90
15959;DHT22;8078;47.822;9.402;2023-04-01T01:57:06;4.00;99.90
15959;DHT22;8078;47.822;9.402;2023-04-01T01:59:35;4.00;99.90
15959;DHT22;8078;47.822;9.402;2023-04-01T02:02:03;4.00;99.90
15959;DHT22;8078;47.822;9.402;2023-04-01T02:04:35;4.00;99.90
15959;DHT22;8078;47.822;9.402;2023-04-01T02:07:07;4.00;99.90
15959;DHT22;8078;47.822;9.402;2023-04-01T02:09:34;4.00;99.90
15959;DHT22;8078;47.822;9.402;2023-04-01T02:12:06;4.00;99.90
15959;DHT22;8078;47.822;9.402;2023-04-01T02:17:19;4.00;99.90
15959;DHT22;8078;47.822;9.402;2023-04-01T02:19:59;4.10;99.90
15959;DHT22;8078;47.822;9.402;2023-04-01T02:22:31;4.10;99.90
15959;DHT22;8078;47.822;9.402;2023-04-01T02:25:03;4.10;99.90
15959;DHT22;8078;47.822;9.402;2023-04-01T02:27:30;4.10;99.90
15959;DHT22;8078;47.822;9.402;2023-04-01T02:29:56;4.10;99.90
15959;DHT22;8078;47.822;9.402;2023-04-01T02:32:22;4.10;99.90
15959;DHT22;8078;47.822;9.402;2023-04-01T02:34:48;4.10;99.90
15959;DHT22;8078;47.822;9.402;2023-04-01T02:37:14;4.10;99.90
15959;DHT22;8078;47.822;9.402;2023-04-01T02:39:40;4.10;99.90
15959;DHT22;8078;47.822;9.402;2023-04-01T02:42:07;4.10;99.90
15959;DHT22;8078;47.822;9.402;2023-04-01T02:44:33;4.10;99.90
15959;DHT22;8078;47.822;9.402;2023-04-01T02:46:58;4.10;99.90
15959;DHT22;8078;47.822;9.402;2023-04-01T02:49:24;4.10;99.90
15959;DHT22;8078;47.822;9.402;2023-04-01T02:51:50;4.10;99.90
15959;DHT22;8078;47.822;9.402;2023-04-01T02:54:17;4.10;99.90
15959;DHT22;8078;47.822;9.402;2023-04-01T02:56:43;4.10;99.90
15959;DHT22;8078;47.822;9.402;2023-04-01T02:59:08;4.10;99.90
15959;DHT22;8078;47.822;9.402;2023-04-01T03:01:34;4.10;99.90
15959;DHT22;8078;47.822;9.402;2023-04-01T03:04:00;4.10;99.90
15959;DHT22;8078;47.822;9.402;2023-04-01T03:06:25;4.10;99.90
15959;DHT22;8078;47.822;9.402;2023-04-01T03:08:52;4.10;99.90
15959;DHT22;8078;47.822;9.402;2023-04-01T03:11:18;4.10;99.90
15959;DHT22;8078;47.822;9.402;2023-04-01T03:13:43;4.10;99.90
15959;DHT22;8078;47.822;9.402;2023-04-01T03:16:09;4.10;99.90
15959;DHT22;8078;47.822;9.402;2023-04-01T03:18:35;4.10;99.90
15959;DHT22;8078;47.822;9.402;2023-04-01T03:21:18;4.10;99.90
15959;DHT22;8078;47.822;9.402;2023-04-01T03:23:44;4.10;99.90
15959;DHT22;8078;47.822;9.402;2023-04-01T03:26:10;4.10;99.90
15959;DHT22;8078;47.822;9.402;2023-04-01T03:28:36;4.10;99.90
15959;DHT22;8078;47.822;9.402;2023-04-01T03:31:02;4.10;99.90
15959;DHT22;8078;47.822;9.402;2023-04-01T03:33:28;4.10;99.90
15959;DHT22;8078;47.822;9.402;2023-04-01T03:35:53;4.10;99.90
15959;DHT22;8078;47.822;9.402;2023-04-01T03:38:19;4.10;99.90
15959;DHT22;8078;47.822;9.402;2023-04-01T03:40:45;4.10;99.90
15959;DHT22;8078;47.822;9.402;2023-04-01T03:43:11;4.10;99.90
15959;DHT22;8078;47.822;9.402;2023-04-01T03:45:44;4.10;99.90
15959;DHT22;8078;47.822;9.402;2023-04-01T03:48:10;4.10;99.90
15959;DHT22;8078;47.822;9.402;2023-04-01T03:50:35;4.10;99.90
15959;DHT22;8078;47.822;9.402;2023-04-01T03:53:01;4.10;99.90
15959;DHT22;8078;47.822;9.402;2023-04-01T03:55:26;4.10;99.90
15959;DHT22;8078;47.822;9.402;2023-04-01T03:57:52;4.10;99.90
15959;DHT22;8078;47.822;9.402;2023-04-01T04:00:18;4.10;99.90
15959;DHT22;8078;47.822;9.402;2023-04-01T04:02:44;4.10;99.90
15959;DHT22;8078;47.822;9.402;2023-04-01T04:05:09;4.10;99.90
15959;DHT22;8078;47.822;9.402;2023-04-01T04:07:35;4.10;99.90
15959;DHT22;8078;47.822;9.402;2023-04-01T04:10:02;4.10;99.90
15959;DHT22;8078;47.822;9.402;2023-04-01T04:12:27;4.00;99.90
15959;DHT22;8078;47.822;9.402;2023-04-01T04:14:53;4.00;99.90
15959;DHT22;8078;47.822;9.402;2023-04-01T04:17:18;4.00;99.90
15959;DHT22;8078;47.822;9.402;2023-04-01T04:19:44;4.10;99.90
15959;DHT22;8078;47.822;9.402;2023-04-01T04:22:09;4.10;99.90
15959;DHT22;8078;47.822;9.402;2023-04-01T04:24:35;4.10;99.90
15959;DHT22;8078;47.822;9.402;2023-04-01T04:27:02;4.10;99.90
15959;DHT22;8078;47.822;9.402;2023-04-01T04:29:27;4.10;99.90
15959;DHT22;8078;47.822;9.402;2023-04-01T04:31:53;4.10;99.90
15959;DHT22;8078;47.822;9.402;2023-04-01T04:34:18;4.10;99.90
15959;DHT22;8078;47.822;9.402;2023-04-01T04:36:44;4.10;99.90
15959;DHT22;8078;47.822;9.402;2023-04-01T04:39:10;4.10;99.90
15959;DHT22;8078;47.822;9.402;2023-04-01T04:41:37;4.10;99.90
15959;DHT22;8078;47.822;9.402;2023-04-01T04:44:03;4.10;99.90
15959;DHT22;8078;47.822;9.402;2023-04-01T04:46:29;4.20;99.90
15959;DHT22;8078;47.822;9.402;2023-04-01T04:48:55;4.20;99.90
15959;DHT22;8078;47.822;9.402;2023-04-01T04:51:21;4.20;99.90
15959;DHT22;8078;47.822;9.402;2023-04-01T04:53:47;4.20;99.90
15959;DHT22;8078;47.822;9.402;2023-04-01T04:56:18;4.20;99.90
15959;DHT22;8078;47.822;9.402;2023-04-01T04:58:44;4.20;99.90
15959;DHT22;8078;47.822;9.402;2023-04-01T05:01:11;4.20;99.90
15959;DHT22;8078;47.822;9.402;2023-04-01T05:03:37;4.20;99.90
15959;DHT22;8078;47.822;9.402;2023-04-01T05:06:04;4.20;99.90
15959;DHT22;8078;47.822;9.402;2023-04-01T05:08:30;4.10;99.90
15959;DHT22;8078;47.822;9.402;2023-04-01T05:10:58;4.10;99.90
15959;DHT22;8078;47.822;9.402;2023-04-01T05:13:23;4.20;99.90
15959;DHT22;8078;47.822;9.402;2023-04-01T05:15:49;4.10;99.90
15959;DHT22;8078;47.822;9.402;2023-04-01T05:18:15;4.10;99.90
15959;DHT22;8078;47.822;9.402;2023-04-01T05:20:47;4.00;99.90
15959;DHT22;8078;47.822;9.402;2023-04-01T05:23:13;4.00;99.90
15959;DHT22;8078;47.822;9.402;2023-04-01T05:25:38;4.00;99.90
15959;DHT22;8078;47.822;9.402;2023-04-01T05:28:04;4.00;99.90
15959;DHT22;8078;47.822;9.402;2023-04-01T05:30:29;3.90;99.90
15959;DHT22;8078;47.822;9.402;2023-04-01T05:32:55;3.90;99.90
15959;DHT22;8078;47.822;9.402;2023-04-01T05:35:20;3.90;99.90
15959;DHT22;8078;47.822;9.402;2023-04-01T05:37:46;3.90;99.90
15959;DHT22;8078;47.822;9.402;2023-04-01T05:40:11;3.90;99.90
15959;DHT22;8078;47.822;9.402;2023-04-01T05:42:37;3.90;99.90
15959;DHT22;8078;47.822;9.402;2023-04-01T05:45:03;3.90;99.90
15959;DHT22;8078;47.822;9.402;2023-04-01T05:47:28;3.90;99.90
15959;DHT22;8078;47.822;9.402;2023-04-01T05:49:54;3.90;99.90
15959;DHT22;8078;47.822;9.402;2023-04-01T05:52:20;3.90;99.90
15959;DHT22;8078;47.822;9.402;2023-04-01T05:54:46;3.90;99.90
15959;DHT22;8078;47.822;9.402;2023-04-01T05:57:11;3.90;99.90
15959;DHT22;8078;47.822;9.402;2023-04-01T05:59:37;3.90;99.90
15959;DHT22;8078;47.822;9.402;2023-04-01T06:02:03;3.90;99.90
15959;DHT22;8078;47.822;9.402;2023-04-01T06:04:32;3.90;99.90
15959;DHT22;8078;47.822;9.402;2023-04-01T06:07:00;3.90;99.90
15959;DHT22;8078;47.822;9.402;2023-04-01T06:09:29;3.90;99.90
15959;DHT22;8078;47.822;9.402;2023-04-01T06:14:46;3.90;99.90
15959;DHT22;8078;47.822;9.402;2023-04-01T06:26:14;4.00;99.90
15959;DHT22;8078;47.822;9.402;2023-04-01T06:28:52;4.00;99.90
15959;DHT22;8078;47.822;9.402;2023-04-01T06:34:35;4.00;99.90
15959;DHT22;8078;47.822;9.402;2023-04-01T06:42:48;4.00;99.90
15959;DHT22;8078;47.822;9.402;2023-04-01T06:45:47;4.00;99.90
15959;DHT22;8078;47.822;9.402;2023-04-01T06:48:27;4.10;99.90
15959;DHT22;8078;47.822;9.402;2023-04-01T06:56:10;4.20;99.90
15959;DHT22;8078;47.822;9.402;2023-04-01T06:58:41;4.20;99.90
15959;DHT22;8078;47.822;9.402;2023-04-01T07:01:10;4.30;99.90
15959;DHT22;8078;47.822;9.402;2023-04-01T07:03:49;4.30;99.90
15959;DHT22;8078;47.822;9.402;2023-04-01T07:06:43;4.30;99.90
15959;DHT22;8078;47.822;9.402;2023-04-01T07:09:14;4.40;99.90
15959;DHT22;8078;47.822;9.402;2023-04-01T07:11:41;4.30;99.90
15959;DHT22;8078;47.822;9.402;2023-04-01T07:14:32;4.40;99.90
15959;DHT22;8078;47.822;9.402;2023-04-01T07:22:09;4.50;99.90
15959;DHT22;8078;47.822;9.402;2023-04-01T07:24:40;4.50;99.90
15959;DHT22;8078;47.822;9.402;2023-04-01T07:27:13;4.50;99.90
15959;DHT22;8078;47.822;9.402;2023-04-01T07:29:39;4.50;99.90
15959;DHT22;8078;47.822;9.402;2023-04-01T07:32:15;4.50;99.90
15959;DHT22;8078;47.822;9.402;2023-04-01T07:35:04;4.50;99.90
15959;DHT22;8078;47.822;9.402;2023-04-01T07:37:32;4.60;99.90
15959;DHT22;8078;47.822;9.402;2023-04-01T07:40:29;4.60;99.90
15959;DHT22;8078;47.822;9.402;2023-04-01T07:43:17;4.70;99.90
15959;DHT22;8078;47.822;9.402;2023-04-01T07:46:41;4.70;99.90
15959;DHT22;8078;47.822;9.402;2023-04-01T07:49:07;4.60;99.90
15959;DHT22;8078;47.822;9.402;2023-04-01T07:52:00;4.60;99.90
15959;DHT22;8078;47.822;9.402;2023-04-01T07:54:32;4.70;99.90
15959;DHT22;8078;47.822;9.402;2023-04-01T08:05:18;4.80;99.90
15959;DHT22;8078;47.822;9.402;2023-04-01T08:08:04;4.80;99.90
15959;DHT22;8078;47.822;9.402;2023-04-01T08:13:40;4.90;99.90
15959;DHT22;8078;47.822;9.402;2023-04-01T08:19:15;5.00;99.90
15959;DHT22;8078;47.822;9.402;2023-04-01T08:21:47;4.90;99.90
15959;DHT22;8078;47.822;9.402;2023-04-01T08:24:24;4.90;99.90
15959;DHT22;8078;47.822;9.402;2023-04-01T08:26:55;4.90;99.90
15959;DHT22;8078;47.822;9.402;2023-04-01T08:29:26;4.90;99.90
15959;DHT22;8078;47.822;9.402;2023-04-01T08:32:06;4.90;99.90
15959;DHT22;8078;47.822;9.402;2023-04-01T08:34:37;4.90;99.90
15959;DHT22;8078;47.822;9.402;2023-04-01T08:37:14;4.90;99.90
15959;DHT22;8078;47.822;9.402;2023-04-01T08:40:02;4.90;99.90
15959;DHT22;8078;47.822;9.402;2023-04-01T08:48:17;4.90;99.90
15959;DHT22;8078;47.822;9.402;2023-04-01T08:59:40;4.90;99.90
15959;DHT22;8078;47.822;9.402;2023-04-01T09:08:30;4.90;99.90
15959;DHT22;8078;47.822;9.402;2023-04-01T09:11:28;4.90;99.90
15959;DHT22;8078;47.822;9.402;2023-04-01T09:22:50;4.80;99.90
15959;DHT22;8078;47.822;9.402;2023-04-01T09:30:47;4.80;99.90
15959;DHT22;8078;47.822;9.402;2023-04-01T09:33:49;4.80;99.90
15959;DHT22;8078;47.822;9.402;2023-04-01T09:44:35;4.80;99.90
15959;DHT22;8078;47.822;9.402;2023-04-01T09:47:15;4.70;99.90
15959;DHT22;8078;47.822;9.402;2023-04-01T09:50:11;4.70;99.90
15959;DHT22;8078;47.822;9.402;2023-04-01T09:52:46;4.70;99.90
15959;DHT22;8078;47.822;9.402;2023-04-01T10:11:12;4.70;99.90
15959;DHT22;8078;47.822;9.402;2023-04-01T10:19:16;4.90;99.90
15959;DHT22;8078;47.822;9.402;2023-04-01T10:32:40;5.10;99.90
15959;DHT22;8078;47.822;9.402;2023-04-01T10:38:23;5.20;99.90
15959;DHT22;8078;47.822;9.402;2023-04-01T10:41:23;5.20;99.90
15959;DHT22;8078;47.822;9.402;2023-04-01T10:46:49;5.20;99.90
15959;DHT22;8078;47.822;9.402;2023-04-01T11:09:30;5.30;99.90
15959;DHT22;8078;47.822;9.402;2023-04-01T11:23:44;5.30;99.90
15959;DHT22;8078;47.822;9.402;2023-04-01T11:31:36;5.30;99.90
15959;DHT22;8078;47.822;9.402;2023-04-01T11:34:24;5.30;99.90
15959;DHT22;8078;47.822;9.402;2023-04-01T11:37:08;5.20;99.90
15959;DHT22;8078;47.822;9.402;2023-04-01T11:40:02;5.20;99.90
15959;DHT22;8078;47.822;9.402;2023-04-01T11:42:47;5.30;99.90
15959;DHT22;8078;47.822;9.402;2023-04-01T11:45:37;5.40;99.90
15959;DHT22;8078;47.822;9.402;2023-04-01T11:51:24;5.60;99.90
15959;DHT22;8078;47.822;9.402;2023-04-01T11:56:51;5.70;99.90
15959;DHT22;8078;47.822;9.402;2023-04-01T11:59:52;5.80;99.90
15959;DHT22;8078;47.822;9.402;2023-04-01T12:03:16;5.80;99.90
15959;DHT22;8078;47.822;9.402;2023-04-01T12:08:48;5.90;99.90
15959;DHT22;8078;47.822;9.402;2023-04-01T12:11:33;6.00;99.90
15959;DHT22;8078;47.822;9.402;2023-04-01T12:14:09;5.90;99.90
15959;DHT22;8078;47.822;9.402;2023-04-01T12:19:39;6.00;99.90
15959;DHT22;8078;47.822;9.402;2023-04-01T12:22:42;6.10;99.90
15959;DHT22;8078;47.822;9.402;2023-04-01T12:36:43;6.10;99.90
15959;DHT22;8078;47.822;9.402;2023-04-01T12:39:22;6.10;99.90
15959;DHT22;8078;47.822;9.402;2023-04-01T12:47:48;6.10;99.90
15959;DHT22;8078;47.822;9.402;2023-04-01T12:55:45;6.10;99.90
15959;DHT22;8078;47.822;9.402;2023-04-01T12:58:51;6.10;99.90
15959;DHT22;8078;47.822;9.402;2023-04-01T13:04:43;6.30;99.90
15959;DHT22;8078;47.822;9.402;2023-04-01T13:07:34;6.30;99.90
15959;DHT22;8078;47.822;9.402;2023-04-01T13:12:49;6.40;99.90
15959;DHT22;8078;47.822;9.402;2023-04-01T13:15:28;6.30;99.90
15959;DHT22;8078;47.822;9.402;2023-04-01T13:23:34;6.10;99.90
15959;DHT22;8078;47.822;9.402;2023-04-01T13:28:50;6.20;99.90
15959;DHT22;8078;47.822;9.402;2023-04-01T13:31:33;6.10;99.90
15959;DHT22;8078;47.822;9.402;2023-04-01T13:36:57;6.00;99.90
15959;DHT22;8078;47.822;9.402;2023-04-01T13:42:47;6.10;99.90
15959;DHT22;8078;47.822;9.402;2023-04-01T13:48:03;6.10;99.90
15959;DHT22;8078;47.822;9.402;2023-04-01T13:50:46;6.10;99.90
15959;DHT22;8078;47.822;9.402;2023-04-01T13:55:55;6.10;99.90
15959;DHT22;8078;47.822;9.402;2023-04-01T14:15:54;6.10;99.90
15959;DHT22;8078;47.822;9.402;2023-04-01T14:21:41;6.00;99.90
15959;DHT22;8078;47.822;9.402;2023-04-01T14:44:18;6.10;99.90
15959;DHT22;8078;47.822;9.402;2023-04-01T14:47:11;6.10;99.90
15959;DHT22;8078;47.822;9.402;2023-04-01T14:49:49;6.10;99.90
15959;DHT22;8078;47.822;9.402;2023-04-01T14:52:25;6.10;99.90
15959;DHT22;8078;47.822;9.402;2023-04-01T14:54:53;6.10;99.90
15959;DHT22;8078;47.822;9.402;2023-04-01T14:57:30;6.10;99.90
15959;DHT22;8078;47.822;9.402;2023-04-01T15:00:09;6.10;99.90
15959;DHT22;8078;47.822;9.402;2023-04-01T15:03:00;6.20;99.90
15959;DHT22;8078;47.822;9.402;2023-04-01T15:05:52;6.20;99.90
15959;DHT22;8078;47.822;9.402;2023-04-01T15:08:25;6.20;99.90
15959;DHT22;8078;47.822;9.402;2023-04-01T15:14:07;6.20;99.90
15959;DHT22;8078;47.822;9.402;2023-04-01T15:17:12;6.30;99.90
15959;DHT22;8078;47.822;9.402;2023-04-01T15:20:22;6.30;99.90
15959;DHT22;8078;47.822;9.402;2023-04-01T15:26:11;6.20;99.90
15959;DHT22;8078;47.822;9.402;2023-04-01T15:39:42;5.90;99.90
15959;DHT22;8078;47.822;9.402;2023-04-01T15:42:24;5.90;99.90
15959;DHT22;8078;47.822;9.402;2023-04-01T16:00:56;6.10;99.90
15959;DHT22;8078;47.822;9.402;2023-04-01T16:08:50;6.10;99.90
15959;DHT22;8078;47.822;9.402;2023-04-01T16:11:27;6.20;99.90
15959;DHT22;8078;47.822;9.402;2023-04-01T16:19:33;6.20;99.90
15959;DHT22;8078;47.822;9.402;2023-04-01T16:22:14;6.20;99.90
15959;DHT22;8078;47.822;9.402;2023-04-01T16:27:50;6.10;99.90
15959;DHT22;8078;47.822;9.402;2023-04-01T16:30:40;6.10;99.90
15959;DHT22;8078;47.822;9.402;2023-04-01T16:33:17;6.10;99.90
15959;DHT22;8078;47.822;9.402;2023-04-01T16:35:53;6.10;99.90
15959;DHT22;8078;47.822;9.402;2023-04-01T16:41:17;6.00;99.90
15959;DHT22;8078;47.822;9.402;2023-04-01T16:46:34;6.00;99.90
15959;DHT22;8078;47.822;9.402;2023-04-01T16:51:41;6.00;99.90
15959;DHT22;8078;47.822;9.402;2023-04-01T17:05:52;6.00;99.90
15959;DHT22;8078;47.822;9.402;2023-04-01T17:16:34;5.90;99.90
15959;DHT22;8078;47.822;9.402;2023-04-01T17:24:26;6.00;99.90
15959;DHT22;8078;47.822;9.402;2023-04-01T17:27:17;5.90;99.90
15959;DHT22;8078;47.822;9.402;2023-04-01T17:33:06;5.80;99.90
15959;DHT22;8078;47.822;9.402;2023-04-01T17:35:58;5.80;99.90
15959;DHT22;8078;47.822;9.402;2023-04-01T17:41:42;5.80;99.90
15959;DHT22;8078;47.822;9.402;2023-04-01T17:52:45;5.80;99.90
15959;DHT22;8078;47.822;9.402;2023-04-01T17:55:43;5.80;99.90
15959;DHT22;8078;47.822;9.402;2023-04-01T17:58:22;5.80;99.90
15959;DHT22;8078;47.822;9.402;2023-04-01T18:01:10;5.70;99.90
15959;DHT22;8078;47.822;9.402;2023-04-01T18:03:55;5.80;99.90
15959;DHT22;8078;47.822;9.402;2023-04-01T18:06:29;5.80;99.90
15959;DHT22;8078;47.822;9.402;2023-04-01T18:09:05;5.80;99.90
15959;DHT22;8078;47.822;9.402;2023-04-01T18:11:45;5.80;99.90
15959;DHT22;8078;47.822;9.402;2023-04-01T18:20:30;5.70;99.90
15959;DHT22;8078;47.822;9.402;2023-04-01T18:23:13;5.70;99.90
15959;DHT22;8078;47.822;9.402;2023-04-01T18:25:47;5.70;99.90
15959;DHT22;8078;47.822;9.402;2023-04-01T18:30:44;5.80;99.90
15959;DHT22;8078;47.822;9.402;2023-04-01T18:33:26;5.80;99.90
15959;DHT22;8078;47.822;9.402;2023-04-01T18:36:15;5.80;99.90
15959;DHT22;8078;47.822;9.402;2023-04-01T18:38:49;5.80;99.90
15959;DHT22;8078;47.822;9.402;2023-04-01T18:41:22;5.80;99.90
15959;DHT22;8078;47.822;9.402;2023-04-01T18:44:15;5.80;99.90
15959;DHT22;8078;47.822;9.402;2023-04-01T18:47:05;5.80;99.90
15959;DHT22;8078;47.822;9.402;2023-04-01T18:50:00;5.80;99.90
15959;DHT22;8078;47.822;9.402;2023-04-01T18:52:34;5.80;99.90
15959;DHT22;8078;47.822;9.402;2023-04-01T18:57:38;5.70;99.90
15959;DHT22;8078;47.822;9.402;2023-04-01T19:00:26;5.80;99.90
15959;DHT22;8078;47.822;9.402;2023-04-01T19:06:06;5.80;99.90
15959;DHT22;8078;47.822;9.402;2023-04-01T19:08:37;5.70;99.90
15959;DHT22;8078;47.822;9.402;2023-04-01T19:21:58;5.60;99.90
15959;DHT22;8078;47.822;9.402;2023-04-01T19:30:02;5.50;99.90
15959;DHT22;8078;47.822;9.402;2023-04-01T19:35:17;5.50;99.90
15959;DHT22;8078;47.822;9.402;2023-04-01T19:46:23;5.40;99.90
15959;DHT22;8078;47.822;9.402;2023-04-01T19:51:51;5.40;99.90
15959;DHT22;8078;47.822;9.402;2023-04-01T19:54:34;5.40;99.90
15959;DHT22;8078;47.822;9.402;2023-04-01T20:00:30;5.30;99.90
15959;DHT22;8078;47.822;9.402;2023-04-01T20:08:50;5.30;99.90
15959;DHT22;8078;47.822;9.402;2023-04-01T20:11:32;5.30;99.90
15959;DHT22;8078;47.822;9.402;2023-04-01T20:14:20;5.20;99.90
15959;DHT22;8078;47.822;9.402;2023-04-01T20:16:58;5.20;99.90
15959;DHT22;8078;47.822;9.402;2023-04-01T20:19:34;5.20;99.90
15959;DHT22;8078;47.822;9.402;2023-04-01T20:22:08;5.20;99.90
15959;DHT22;8078;47.822;9.402;2023-04-01T20:24:45;5.10;99.90
15959;DHT22;8078;47.822;9.402;2023-04-01T20:29:55;5.10;99.90
15959;DHT22;8078;47.822;9.402;2023-04-01T20:40:36;5.00;99.90
15959;DHT22;8078;47.822;9.402;2023-04-01T20:46:22;5.00;99.90
15959;DHT22;8078;47.822;9.402;2023-04-01T20:51:38;4.90;99.90
15959;DHT22;8078;47.822;9.402;2023-04-01T21:02:54;4.90;99.90
15959;DHT22;8078;47.822;9.402;2023-04-01T21:08:24;4.70;99.90
15959;DHT22;8078;47.822;9.402;2023-04-01T21:17:08;4.80;99.90
15959;DHT22;8078;47.822;9.402;2023-04-01T21:27:58;4.70;99.90
15959;DHT22;8078;47.822;9.402;2023-04-01T21:30:32;4.60;99.90
15959;DHT22;8078;47.822;9.402;2023-04-01T21:33:32;4.60;99.90
15959;DHT22;8078;47.822;9.402;2023-04-01T21:44:43;4.60;99.90
15959;DHT22;8078;47.822;9.402;2023-04-01T21:58:24;4.60;99.90
15959;DHT22;8078;47.822;9.402;2023-04-01T22:01:05;4.60;99.90
15959;DHT22;8078;47.822;9.402;2023-04-01T22:06:17;4.60;99.90
15959;DHT22;8078;47.822;9.402;2023-04-01T22:08:59;4.60;99.90
15959;DHT22;8078;47.822;9.402;2023-04-01T22:12:14;4.60;99.90
15959;DHT22;8078;47.822;9.402;2023-04-01T22:17:27;4.40;99.90
15959;DHT22;8078;47.822;9.402;2023-04-01T22:20:19;4.30;99.90
15959;DHT22;8078;47.822;9.402;2023-04-01T22:27:52;4.30;99.90
15959;DHT22;8078;47.822;9.402;2023-04-01T22:30:39;4.40;99.90
15959;DHT22;8078;47.822;9.402;2023-04-01T22:33:51;4.50;99.90
15959;DHT22;8078;47.822;9.402;2023-04-01T22:36:51;4.40;99.90
15959;DHT22;8078;47.822;9.402;2023-04-01T22:45:04;4.40;99.90
15959;DHT22;8078;47.822;9.402;2023-04-01T22:50:24;4.40;99.90
15959;DHT22;8078;47.822;9.402;2023-04-01T22:55:33;4.40;99.90
15959;DHT22;8078;47.822;9.402;2023-04-01T23:01:27;4.40;99.90
15959;DHT22;8078;47.822;9.402;2023-04-01T23:03:56;4.40;99.90
15959;DHT22;8078;47.822;9.402;2023-04-01T23:06:35;4.40;99.90
15959;DHT22;8078;47.822;9.402;2023-04-01T23:09:07;4.40;99.90
15959;DHT22;8078;47.822;9.402;2023-04-01T23:11:48;4.30;99.90
15959;DHT22;8078;47.822;9.402;2023-04-01T23:22:16;4.30;99.90
15959;DHT22;8078;47.822;9.402;2023-04-01T23:35:57;4.20;99.90
15959;DHT22;8078;47.822;9.402;2023-04-01T23:38:36;4.20;99.90
15959;DHT22;8078;47.822;9.402;2023-04-01T23:41:02;4.10;99.90
15959;DHT22;8078;47.822;9.402;2023-04-01T23:43:31;4.10;99.90
15959;DHT22;8078;47.822;9.402;2023-04-01T23:46:01;4.10;99.90
15959;DHT22;8078;47.822;9.402;2023-04-01T23:48:41;4.20;99.90
15959;DHT22;8078;47.822;9.402;2023-04-01T23:51:21;4.20;99.90
15959;DHT22;8078;47.822;9.402;2023-04-01T23:53:54;4.20;99.90
15959;DHT22;8078;47.822;9.402;2023-04-01T23:56:21;4.10;99.90
15959;DHT22;8078;47.822;9.402;2023-04-01T23:58:52;4.10;99.90
